Time;durP1;ratioP1;P1;durP2;ratioP2;P2;SDS_P1;SDS_P2;PMS_P1;PMS_P2;Temp;Humidity;BMP_temperature;BMP_pressure;BME280_temperature;BME280_humidity;BME280_pressure;Samples;Min_cycle;Max_cycle;Signal;HPM_P1;HPM_P2
2022/01/13 00:01:44;;;;;;;;;;;22.60;50.20;;;;;;5091141;28;995;-35
2022/01/13 00:04:12;;;;;;;;;;;22.60;50.20;;;;;;5090966;28;1906;-35
2022/01/13 00:06:40;;;;;;;;;;;22.60;50.20;;;;;;5091202;28;1779;-35
2022/01/13 00:09:07;;;;;;;;;;;22.60;50.10;;;;;;5091233;27;990;-35
2022/01/13 00:11:34;;;;;;;;;;;22.60;50.20;;;;;;5089721;28;1806;-35
2022/01/13 00:17:08;;;;;;;;;;;22.70;50.10;;;;;;5090871;28;686;-35
2022/01/13 00:19:47;;;;;;;;;;;22.70;50.20;;;;;;5091422;28;994;-35
2022/01/13 00:22:19;;;;;;;;;;;22.70;50.10;;;;;;5090417;28;920;-35
2022/01/13 00:24:50;;;;;;;;;;;22.70;50.10;;;;;;5091903;27;1978;-35
2022/01/13 00:27:17;;;;;;;;;;;22.70;50.10;;;;;;5091129;28;875;-35
2022/01/13 00:29:45;;;;;;;;;;;22.70;50.10;;;;;;5091863;28;988;-35
2022/01/13 00:32:14;;;;;;;;;;;22.70;50.10;;;;;;5091257;27;927;-35
2022/01/13 00:34:41;;;;;;;;;;;22.70;50.00;;;;;;5091023;28;1004;-35
2022/01/13 00:37:08;;;;;;;;;;;22.70;50.00;;;;;;5091289;28;1023;-35
2022/01/13 00:39:35;;;;;;;;;;;22.70;50.00;;;;;;5091100;28;1011;-35
2022/01/13 00:42:02;;;;;;;;;;;22.70;50.10;;;;;;5091032;28;936;-35
2022/01/13 00:44:35;;;;;;;;;;;22.70;50.10;;;;;;5091090;28;1975;-35
2022/01/13 00:47:01;;;;;;;;;;;22.60;50.00;;;;;;5090075;28;919;-35
2022/01/13 00:49:29;;;;;;;;;;;22.70;50.00;;;;;;5090344;28;913;-35
2022/01/13 00:51:57;;;;;;;;;;;22.70;50.00;;;;;;5090453;28;976;-35
2022/01/13 00:54:24;;;;;;;;;;;22.70;49.90;;;;;;5091172;28;976;-35
2022/01/13 00:56:51;;;;;;;;;;;22.70;49.90;;;;;;5079224;28;1023;-35
2022/01/13 00:59:18;;;;;;;;;;;22.60;49.90;;;;;;5077301;28;903;-35
2022/01/13 01:01:46;;;;;;;;;;;22.60;49.90;;;;;;5076899;28;1008;-35
2022/01/13 01:04:13;;;;;;;;;;;22.50;50.10;;;;;;5076876;28;1971;-35
2022/01/13 01:06:41;;;;;;;;;;;22.40;50.30;;;;;;5076365;28;889;-35
2022/01/13 01:09:13;;;;;;;;;;;22.40;50.40;;;;;;5077561;28;991;-35
2022/01/13 01:11:41;;;;;;;;;;;22.40;50.40;;;;;;5077347;28;1776;-35
2022/01/13 01:14:08;;;;;;;;;;;22.40;50.40;;;;;;5076851;28;940;-35
2022/01/13 01:16:36;;;;;;;;;;;22.40;50.50;;;;;;5077573;28;1023;-35
2022/01/13 01:19:06;;;;;;;;;;;22.40;50.30;;;;;;5077529;27;995;-35
2022/01/13 01:22:13;;;;;;;;;;;22.40;50.50;;;;;;5076738;28;915;-35
2022/01/13 01:27:05;;;;;;;;;;;22.40;50.30;;;;;;5076037;28;660;-35
2022/01/13 01:29:38;;;;;;;;;;;22.50;50.50;;;;;;5076410;28;1013;-35
2022/01/13 01:32:09;;;;;;;;;;;22.50;50.40;;;;;;5076849;28;960;-35
2022/01/13 01:34:53;;;;;;;;;;;22.40;50.50;;;;;;5077101;28;1265;-35
2022/01/13 01:37:20;;;;;;;;;;;22.40;50.50;;;;;;5076914;28;904;-35
2022/01/13 01:39:49;;;;;;;;;;;22.40;50.60;;;;;;5076930;28;1011;-35
2022/01/13 01:42:16;;;;;;;;;;;22.50;50.60;;;;;;5076499;28;1081;-35
2022/01/13 01:44:44;;;;;;;;;;;22.50;50.50;;;;;;5076666;28;1902;-35
2022/01/13 01:47:13;;;;;;;;;;;22.50;50.50;;;;;;5075878;27;948;-35
2022/01/13 01:49:41;;;;;;;;;;;22.50;50.40;;;;;;5076583;27;1129;-35
2022/01/13 01:52:09;;;;;;;;;;;22.60;50.40;;;;;;5076562;28;1010;-35
2022/01/13 01:54:36;;;;;;;;;;;22.60;50.40;;;;;;5076293;28;1079;-35
2022/01/13 01:57:04;;;;;;;;;;;22.60;50.40;;;;;;5075899;28;1035;-35
2022/01/13 01:59:33;;;;;;;;;;;22.60;50.50;;;;;;5076999;28;1015;-35
2022/01/13 02:02:04;;;;;;;;;;;22.50;50.40;;;;;;5077303;28;1626;-32
2022/01/13 02:04:31;;;;;;;;;;;22.50;50.30;;;;;;5077313;28;1894;-32
2022/01/13 02:07:00;;;;;;;;;;;22.50;50.30;;;;;;5075488;28;1000;-32
2022/01/13 02:09:26;;;;;;;;;;;22.50;50.30;;;;;;5076601;28;972;-32
2022/01/13 02:11:56;;;;;;;;;;;22.50;50.50;;;;;;5076317;28;1003;-32
2022/01/13 02:14:34;;;;;;;;;;;22.50;50.50;;;;;;5076641;28;976;-32
2022/01/13 02:17:05;;;;;;;;;;;22.40;50.60;;;;;;5076472;27;946;-32
2022/01/13 02:19:32;;;;;;;;;;;22.40;50.60;;;;;;5076496;28;940;-32
2022/01/13 02:22:00;;;;;;;;;;;22.40;50.60;;;;;;5076251;28;944;-32
2022/01/13 02:24:27;;;;;;;;;;;22.40;50.70;;;;;;5075988;28;1902;-32
2022/01/13 02:26:54;;;;;;;;;;;22.40;50.70;;;;;;5075906;28;1066;-32
2022/01/13 02:29:21;;;;;;;;;;;22.40;50.40;;;;;;5075881;28;996;-32
2022/01/13 02:31:48;;;;;;;;;;;22.50;50.40;;;;;;5076326;28;1039;-32
2022/01/13 02:34:14;;;;;;;;;;;22.50;50.30;;;;;;5076543;28;987;-32
2022/01/13 02:36:42;;;;;;;;;;;22.50;50.20;;;;;;5075997;28;844;-32
2022/01/13 02:39:10;;;;;;;;;;;22.50;50.20;;;;;;5076364;28;971;-32
2022/01/13 02:41:36;;;;;;;;;;;22.50;50.10;;;;;;5076434;28;1023;-32
2022/01/13 02:44:11;;;;;;;;;;;22.50;50.30;;;;;;5076477;28;992;-32
2022/01/13 02:46:56;;;;;;;;;;;22.50;50.50;;;;;;5075446;28;1910;-32
2022/01/13 02:49:24;;;;;;;;;;;22.50;50.40;;;;;;5076161;27;943;-32
2022/01/13 02:51:52;;;;;;;;;;;22.40;50.50;;;;;;5075964;28;932;-32
2022/01/13 02:54:20;;;;;;;;;;;22.40;50.70;;;;;;5075491;28;971;-32
2022/01/13 02:56:47;;;;;;;;;;;22.40;50.70;;;;;;5075696;28;967;-32
2022/01/13 02:59:14;;;;;;;;;;;22.40;50.80;;;;;;5075649;27;1003;-32
2022/01/13 03:01:41;;;;;;;;;;;22.40;50.80;;;;;;5075317;28;1004;-32
2022/01/13 03:04:09;;;;;;;;;;;22.40;50.60;;;;;;5075745;28;980;-33
2022/01/13 03:06:38;;;;;;;;;;;22.40;50.70;;;;;;5074932;28;1902;-32
2022/01/13 03:09:05;;;;;;;;;;;22.40;51.20;;;;;;5075526;28;1199;-32
2022/01/13 03:11:35;;;;;;;;;;;22.40;50.70;;;;;;5075408;28;995;-32
2022/01/13 03:14:03;;;;;;;;;;;22.40;50.70;;;;;;5075625;27;1011;-32
2022/01/13 03:16:30;;;;;;;;;;;22.40;50.90;;;;;;5075492;28;1035;-32
2022/01/13 03:18:57;;;;;;;;;;;22.40;50.80;;;;;;5075214;28;995;-32
2022/01/13 03:21:23;;;;;;;;;;;22.30;50.90;;;;;;5075080;28;1023;-32
2022/01/13 03:23:51;;;;;;;;;;;22.40;50.90;;;;;;5075310;28;991;-32
2022/01/13 03:29:32;;;;;;;;;;;22.40;50.90;;;;;;5074232;28;1006;-32
2022/01/13 03:31:58;;;;;;;;;;;22.40;51.00;;;;;;5075588;28;1008;-32
2022/01/13 03:34:25;;;;;;;;;;;22.40;50.90;;;;;;5074759;28;1005;-32
2022/01/13 03:36:52;;;;;;;;;;;22.40;50.90;;;;;;5075324;28;1016;-32
2022/01/13 03:39:19;;;;;;;;;;;22.50;50.80;;;;;;5075191;28;980;-32
2022/01/13 03:41:46;;;;;;;;;;;22.50;50.80;;;;;;5075124;28;1018;-32
2022/01/13 03:44:27;;;;;;;;;;;22.50;50.80;;;;;;5075053;28;1033;-32
2022/01/13 03:46:55;;;;;;;;;;;22.50;50.60;;;;;;5075051;28;1901;-32
2022/01/13 03:49:21;;;;;;;;;;;22.60;50.60;;;;;;5074832;28;997;-32
2022/01/13 03:52:12;;;;;;;;;;;22.60;50.70;;;;;;5074744;28;976;-32
2022/01/13 03:54:54;;;;;;;;;;;22.60;50.60;;;;;;5075028;27;1143;-32
2022/01/13 03:58:00;;;;;;;;;;;22.60;50.60;;;;;;5074360;28;939;-32
2022/01/13 04:00:47;;;;;;;;;;;22.60;50.40;;;;;;5074886;28;982;-32
2022/01/13 04:03:15;;;;;;;;;;;22.60;50.60;;;;;;5074547;28;1027;-32
2022/01/13 04:05:56;;;;;;;;;;;22.60;50.50;;;;;;5074581;28;1909;-32
2022/01/13 04:08:23;;;;;;;;;;;22.60;50.60;;;;;;5075226;27;1673;-32
2022/01/13 04:11:08;;;;;;;;;;;22.60;50.50;;;;;;5074376;28;940;-32
2022/01/13 04:13:47;;;;;;;;;;;22.60;50.60;;;;;;5074722;28;939;-32
2022/01/13 04:16:14;;;;;;;;;;;22.60;50.50;;;;;;5074745;28;995;-33
2022/01/13 04:18:42;;;;;;;;;;;22.50;50.50;;;;;;5074101;28;936;-34
2022/01/13 04:21:09;;;;;;;;;;;22.50;50.50;;;;;;5074609;28;983;-34
2022/01/13 04:23:36;;;;;;;;;;;22.50;50.50;;;;;;5074281;28;943;-34
2022/01/13 04:26:05;;;;;;;;;;;22.50;51.60;;;;;;5074270;28;1975;-34
2022/01/13 04:28:32;;;;;;;;;;;22.50;50.50;;;;;;5074725;28;983;-34
2022/01/13 04:31:01;;;;;;;;;;;22.50;50.50;;;;;;5075093;28;906;-34
2022/01/13 04:33:28;;;;;;;;;;;22.50;50.50;;;;;;5077271;28;1070;-35
2022/01/13 04:35:56;;;;;;;;;;;22.50;50.40;;;;;;5077637;28;991;-35
2022/01/13 04:38:23;;;;;;;;;;;22.50;50.40;;;;;;5077742;28;935;-35
2022/01/13 04:40:55;;;;;;;;;;;22.50;50.60;;;;;;5077589;28;1765;-35
2022/01/13 04:43:22;;;;;;;;;;;22.50;50.60;;;;;;5077990;28;980;-35
2022/01/13 04:45:49;;;;;;;;;;;22.40;50.60;;;;;;5077666;28;1906;-35
2022/01/13 04:48:16;;;;;;;;;;;22.40;50.70;;;;;;5077213;28;868;-35
2022/01/13 04:50:42;;;;;;;;;;;22.40;50.70;;;;;;5077632;28;949;-35
2022/01/13 04:53:11;;;;;;;;;;;22.40;50.70;;;;;;5077122;28;992;-35
2022/01/13 04:55:38;;;;;;;;;;;22.40;50.80;;;;;;5077446;28;999;-35
2022/01/13 04:58:06;;;;;;;;;;;22.40;50.70;;;;;;5077080;28;948;-35
2022/01/13 05:00:33;;;;;;;;;;;22.50;50.80;;;;;;5076697;28;1007;-35
2022/01/13 05:03:00;;;;;;;;;;;22.40;50.80;;;;;;5076968;28;944;-35
2022/01/13 05:05:27;;;;;;;;;;;22.40;50.70;;;;;;5076845;28;1973;-35
2022/01/13 05:07:54;;;;;;;;;;;22.40;50.90;;;;;;5077426;27;962;-35
2022/01/13 05:10:22;;;;;;;;;;;22.40;50.90;;;;;;5077271;28;968;-35
2022/01/13 05:12:54;;;;;;;;;;;22.50;50.90;;;;;;5077096;28;935;-35
2022/01/13 05:15:24;;;;;;;;;;;22.50;50.30;;;;;;5076965;28;936;-35
2022/01/13 05:20:41;;;;;;;;;;;22.60;50.00;;;;;;5077097;28;908;-35
2022/01/13 05:23:08;;;;;;;;;;;22.70;49.80;;;;;;5076918;28;952;-35
2022/01/13 05:25:36;;;;;;;;;;;22.70;49.70;;;;;;5076257;28;1902;-35
2022/01/13 05:28:03;;;;;;;;;;;22.70;49.60;;;;;;5076743;28;1011;-35
2022/01/13 05:30:31;;;;;;;;;;;22.70;49.70;;;;;;5076410;28;952;-35
2022/01/13 05:32:57;;;;;;;;;;;22.70;49.60;;;;;;5076437;28;1099;-35
2022/01/13 05:35:25;;;;;;;;;;;22.70;49.70;;;;;;5075764;27;974;-35
2022/01/13 05:37:53;;;;;;;;;;;22.70;49.80;;;;;;5076532;28;960;-35
2022/01/13 05:40:19;;;;;;;;;;;22.70;49.80;;;;;;5076306;28;990;-35
2022/01/13 05:42:48;;;;;;;;;;;22.60;49.90;;;;;;5075425;28;955;-35
2022/01/13 05:45:16;;;;;;;;;;;22.60;49.80;;;;;;5075920;28;1981;-35
2022/01/13 05:47:43;;;;;;;;;;;22.60;49.90;;;;;;5076213;27;925;-35
2022/01/13 05:50:10;;;;;;;;;;;22.50;49.90;;;;;;5075567;28;976;-35
2022/01/13 05:52:38;;;;;;;;;;;22.60;49.80;;;;;;5076078;28;759;-35
2022/01/13 05:55:06;;;;;;;;;;;22.60;49.70;;;;;;5075919;28;1004;-35
2022/01/13 05:57:32;;;;;;;;;;;22.60;49.30;;;;;;5075711;28;911;-35
2022/01/13 06:00:00;;;;;;;;;;;22.70;49.30;;;;;;5075591;28;972;-35
2022/01/13 06:02:27;;;;;;;;;;;22.70;49.10;;;;;;5074978;28;868;-35
2022/01/13 06:04:54;;;;;;;;;;;22.70;49.20;;;;;;5074502;28;1000;-35
2022/01/13 06:07:21;;;;;;;;;;;22.70;50.30;;;;;;5074311;28;1974;-35
2022/01/13 06:09:47;;;;;;;;;;;22.70;49.00;;;;;;5075263;28;972;-35
2022/01/13 06:12:16;;;;;;;;;;;22.70;48.90;;;;;;5075334;28;1008;-35
2022/01/13 06:14:43;;;;;;;;;;;22.70;48.90;;;;;;5074442;27;1856;-35
2022/01/13 06:17:11;;;;;;;;;;;22.70;48.90;;;;;;5073611;28;987;-35
2022/01/13 06:19:38;;;;;;;;;;;22.70;48.80;;;;;;5074093;28;1008;-35
2022/01/13 06:22:05;;;;;;;;;;;22.70;48.70;;;;;;5073753;28;960;-35
2022/01/13 06:24:32;;;;;;;;;;;22.70;49.00;;;;;;5072451;28;967;-35
2022/01/13 06:26:59;;;;;;;;;;;22.70;49.10;;;;;;5072590;28;1981;-36
2022/01/13 06:29:25;;;;;;;;;;;22.70;49.20;;;;;;5072112;27;963;-36
2022/01/13 06:31:54;;;;;;;;;;;22.70;49.60;;;;;;5073425;28;972;-36
2022/01/13 06:34:22;;;;;;;;;;;22.70;49.50;;;;;;5073370;28;1022;-36
2022/01/13 06:36:49;;;;;;;;;;;22.60;49.50;;;;;;5073030;28;1063;-36
2022/01/13 06:39:16;;;;;;;;;;;22.60;49.80;;;;;;5073899;28;929;-36
2022/01/13 06:41:42;;;;;;;;;;;22.60;50.00;;;;;;5073625;28;1124;-36
2022/01/13 06:44:09;;;;;;;;;;;22.50;49.90;;;;;;5074402;28;1439;-36
2022/01/13 06:46:36;;;;;;;;;;;22.50;50.00;;;;;;5073495;28;1906;-36
2022/01/13 06:49:03;;;;;;;;;;;22.50;50.10;;;;;;5072767;28;940;-35
2022/01/13 06:51:31;;;;;;;;;;;22.60;50.30;;;;;;5074171;28;879;-37
2022/01/13 06:53:58;;;;;;;;;;;22.60;49.90;;;;;;5073011;28;1770;-37
2022/01/13 06:56:26;;;;;;;;;;;22.60;50.20;;;;;;5071263;28;1759;-36
2022/01/13 06:58:54;;;;;;;;;;;22.60;50.10;;;;;;5053946;27;1007;-37
2022/01/13 07:01:22;;;;;;;;;;;22.60;50.20;;;;;;5053833;27;968;-36
2022/01/13 07:03:50;;;;;;;;;;;22.70;50.30;;;;;;5052757;27;998;-36
2022/01/13 07:06:16;;;;;;;;;;;22.70;50.40;;;;;;5053334;28;1894;-36
2022/01/13 07:08:44;;;;;;;;;;;22.70;50.10;;;;;;5054032;28;968;-37
2022/01/13 07:11:11;;;;;;;;;;;22.80;50.30;;;;;;5053659;28;987;-36
2022/01/13 07:13:38;;;;;;;;;;;22.80;50.20;;;;;;5053063;28;940;-36
2022/01/13 07:16:05;;;;;;;;;;;22.80;49.70;;;;;;5053212;28;968;-37
2022/01/13 07:18:38;;;;;;;;;;;22.70;48.50;;;;;;5053872;27;931;-36
2022/01/13 07:21:05;;;;;;;;;;;22.60;47.90;;;;;;5054014;27;1014;-36
2022/01/13 07:23:32;;;;;;;;;;;22.60;47.50;;;;;;5052924;28;1011;-37
2022/01/13 07:26:02;;;;;;;;;;;22.50;47.80;;;;;;5053341;28;1981;-36
2022/01/13 07:28:29;;;;;;;;;;;22.50;48.00;;;;;;5052666;27;952;-36
2022/01/13 07:30:55;;;;;;;;;;;22.50;47.80;;;;;;5053343;27;1013;-36
2022/01/13 07:33:22;;;;;;;;;;;22.50;48.00;;;;;;5052900;28;991;-37
2022/01/13 07:35:49;;;;;;;;;;;22.40;47.90;;;;;;5053606;28;930;-37
2022/01/13 07:38:15;;;;;;;;;;;22.40;47.70;;;;;;5052824;28;1879;-37
2022/01/13 07:40:42;;;;;;;;;;;22.40;47.70;;;;;;5052760;28;935;-36
2022/01/13 07:43:10;;;;;;;;;;;22.40;47.60;;;;;;5053684;28;964;-37
2022/01/13 07:45:37;;;;;;;;;;;22.40;47.60;;;;;;5053068;28;1038;-37
2022/01/13 07:48:04;;;;;;;;;;;22.40;47.40;;;;;;5052225;28;1906;-36
2022/01/13 07:50:31;;;;;;;;;;;22.30;47.40;;;;;;5053561;28;1003;-36
2022/01/13 07:52:58;;;;;;;;;;;22.30;47.60;;;;;;5053191;28;947;-36
2022/01/13 07:55:25;;;;;;;;;;;22.40;47.90;;;;;;5053100;28;998;-36
2022/01/13 07:57:52;;;;;;;;;;;22.50;48.20;;;;;;5052597;27;928;-37
2022/01/13 08:00:20;;;;;;;;;;;22.50;48.20;;;;;;5052343;28;987;-37
2022/01/13 08:02:47;;;;;;;;;;;22.50;48.20;;;;;;5052866;28;978;-37
2022/01/13 08:05:14;;;;;;;;;;;22.50;48.20;;;;;;5051372;28;955;-36
2022/01/13 08:07:40;;;;;;;;;;;22.50;48.30;;;;;;5056509;28;1887;-36
2022/01/13 08:10:07;;;;;;;;;;;22.60;48.30;;;;;;5056180;28;971;-36
2022/01/13 08:12:34;;;;;;;;;;;22.60;48.40;;;;;;5056494;28;971;-37
2022/01/13 08:15:01;;;;;;;;;;;22.60;48.30;;;;;;5055812;28;1019;-36
2022/01/13 08:20:13;;;;;;;;;;;22.50;48.80;;;;;;5056506;28;863;-37
2022/01/13 08:22:40;;;;;;;;;;;22.50;48.70;;;;;;5055978;28;935;-36
2022/01/13 08:25:07;;;;;;;;;;;22.50;48.80;;;;;;5055482;28;988;-36
2022/01/13 08:27:34;;;;;;;;;;;22.50;48.80;;;;;;5056062;28;1902;-36
2022/01/13 08:30:01;;;;;;;;;;;22.50;48.90;;;;;;5055081;28;984;-36
2022/01/13 08:32:29;;;;;;;;;;;22.50;48.90;;;;;;5055452;28;1023;-36
2022/01/13 08:34:56;;;;;;;;;;;22.50;49.00;;;;;;5056257;28;1027;-36
2022/01/13 08:37:23;;;;;;;;;;;22.60;49.00;;;;;;5056455;28;935;-36
2022/01/13 08:39:50;;;;;;;;;;;22.60;49.00;;;;;;5056250;27;1027;-36
2022/01/13 08:42:17;;;;;;;;;;;22.60;49.10;;;;;;5054377;27;983;-36
2022/01/13 08:44:43;;;;;;;;;;;22.60;49.00;;;;;;5055849;28;1173;-36
2022/01/13 08:47:10;;;;;;;;;;;22.60;49.00;;;;;;5055697;28;1985;-36
2022/01/13 08:49:38;;;;;;;;;;;22.60;49.00;;;;;;5056283;28;1011;-36
2022/01/13 08:52:06;;;;;;;;;;;22.60;49.10;;;;;;5055770;27;959;-37
2022/01/13 08:54:33;;;;;;;;;;;22.70;49.00;;;;;;5055276;28;976;-36
2022/01/13 08:57:00;;;;;;;;;;;22.60;49.00;;;;;;5056385;28;951;-36
2022/01/13 08:59:27;;;;;;;;;;;22.60;48.90;;;;;;5055893;28;979;-36
2022/01/13 09:01:54;;;;;;;;;;;22.60;49.00;;;;;;5056063;28;940;-37
2022/01/13 09:04:21;;;;;;;;;;;22.60;49.10;;;;;;5055546;28;1020;-36
2022/01/13 09:06:49;;;;;;;;;;;22.60;49.30;;;;;;5056215;27;1906;-35
2022/01/13 09:09:16;;;;;;;;;;;22.70;49.30;;;;;;5054839;28;976;-36
2022/01/13 09:11:43;;;;;;;;;;;22.60;49.30;;;;;;5056025;28;1844;-36
2022/01/13 09:14:11;;;;;;;;;;;22.60;49.30;;;;;;5054242;28;1754;-37
2022/01/13 09:16:43;;;;;;;;;;;22.60;49.20;;;;;;5055546;28;927;-37
2022/01/13 09:19:11;;;;;;;;;;;22.60;49.20;;;;;;5054409;27;968;-36
2022/01/13 09:21:39;;;;;;;;;;;22.60;49.20;;;;;;5055799;27;1140;-36
2022/01/13 09:24:07;;;;;;;;;;;22.60;49.30;;;;;;5054374;28;983;-35
2022/01/13 09:26:34;;;;;;;;;;;22.60;49.40;;;;;;5055343;28;2010;-35
2022/01/13 09:29:01;;;;;;;;;;;22.60;49.30;;;;;;5054199;28;944;-35
2022/01/13 09:31:28;;;;;;;;;;;22.60;49.50;;;;;;5054965;28;982;-34
2022/01/13 09:33:55;;;;;;;;;;;22.60;49.40;;;;;;5055756;28;1011;-36
2022/01/13 09:36:22;;;;;;;;;;;22.60;49.50;;;;;;5054470;28;894;-35
2022/01/13 09:38:49;;;;;;;;;;;22.60;49.40;;;;;;5055337;28;958;-35
2022/01/13 09:41:18;;;;;;;;;;;22.60;49.40;;;;;;5055478;28;996;-34
2022/01/13 09:43:45;;;;;;;;;;;22.60;49.50;;;;;;5054307;28;1847;-35
2022/01/13 09:46:12;;;;;;;;;;;22.60;49.40;;;;;;5054410;28;1015;-35
2022/01/13 09:48:40;;;;;;;;;;;22.60;49.50;;;;;;5055093;28;1902;-35
2022/01/13 09:51:07;;;;;;;;;;;22.60;49.40;;;;;;5054155;28;878;-35
2022/01/13 09:53:34;;;;;;;;;;;22.50;49.40;;;;;;5055446;27;1042;-35
2022/01/13 09:56:01;;;;;;;;;;;22.60;49.20;;;;;;5054882;27;916;-35
2022/01/13 09:58:29;;;;;;;;;;;22.60;49.30;;;;;;5053914;28;1019;-36
2022/01/13 10:00:57;;;;;;;;;;;22.50;49.30;;;;;;5054883;28;1811;-36
2022/01/13 10:03:26;;;;;;;;;;;22.60;49.50;;;;;;5054472;28;1003;-36
2022/01/13 10:05:54;;;;;;;;;;;22.60;49.60;;;;;;5054214;27;1032;-36
2022/01/13 10:08:21;;;;;;;;;;;22.60;49.50;;;;;;5053822;28;1988;-36
2022/01/13 10:10:48;;;;;;;;;;;22.60;49.50;;;;;;5055040;28;1057;-36
2022/01/13 10:13:23;;;;;;;;;;;22.60;49.40;;;;;;5054020;28;880;-36
2022/01/13 10:18:37;;;;;;;;;;;22.60;49.50;;;;;;5053549;28;602;-36
2022/01/13 10:21:07;;;;;;;;;;;22.60;49.50;;;;;;5053627;28;936;-37
2022/01/13 10:23:34;;;;;;;;;;;22.60;49.40;;;;;;5053450;28;948;-36
2022/01/13 10:26:09;;;;;;;;;;;22.60;49.60;;;;;;5053056;28;932;-36
2022/01/13 10:28:36;;;;;;;;;;;22.60;49.60;;;;;;5053933;27;1902;-36
2022/01/13 10:31:04;;;;;;;;;;;22.60;49.50;;;;;;5054328;28;928;-35
2022/01/13 10:33:31;;;;;;;;;;;22.60;49.50;;;;;;5054398;28;944;-36
2022/01/13 10:36:07;;;;;;;;;;;22.60;49.40;;;;;;5053548;28;983;-35
2022/01/13 10:38:49;;;;;;;;;;;22.60;49.40;;;;;;5054391;28;993;-35
2022/01/13 10:41:37;;;;;;;;;;;22.60;49.50;;;;;;5054322;28;1075;-35
2022/01/13 10:44:14;;;;;;;;;;;22.60;49.60;;;;;;5053637;27;1105;-35
2022/01/13 10:47:05;;;;;;;;;;;22.50;49.50;;;;;;5054226;28;1004;-36
2022/01/13 10:49:36;;;;;;;;;;;22.60;49.50;;;;;;5064143;28;1065;-36
2022/01/13 10:52:23;;;;;;;;;;;22.50;49.50;;;;;;5053694;28;1003;-36
2022/01/13 10:54:52;;;;;;;;;;;22.60;49.50;;;;;;5053652;27;964;-36
2022/01/13 10:57:20;;;;;;;;;;;22.50;49.60;;;;;;5053900;28;971;-37
2022/01/13 10:59:47;;;;;;;;;;;22.60;49.60;;;;;;5053224;28;991;-37
2022/01/13 11:02:15;;;;;;;;;;;22.60;49.50;;;;;;5053072;28;935;-37
2022/01/13 11:04:43;;;;;;;;;;;22.50;49.20;;;;;;5054065;28;975;-37
2022/01/13 11:07:14;;;;;;;;;;;22.50;49.40;;;;;;5052894;28;1913;-37
2022/01/13 11:09:42;;;;;;;;;;;22.50;49.30;;;;;;5053360;28;1052;-36
2022/01/13 11:12:10;;;;;;;;;;;22.50;49.40;;;;;;5052544;27;951;-37
2022/01/13 11:14:41;;;;;;;;;;;22.50;49.50;;;;;;5052486;28;892;-36
2022/01/13 11:17:08;;;;;;;;;;;22.60;49.40;;;;;;5052752;27;928;-36
2022/01/13 11:19:35;;;;;;;;;;;22.50;49.30;;;;;;5053170;28;983;-36
2022/01/13 11:22:04;;;;;;;;;;;22.50;49.30;;;;;;5054615;27;924;-36
2022/01/13 11:24:31;;;;;;;;;;;22.50;50.60;;;;;;5053290;28;985;-36
2022/01/13 11:26:58;;;;;;;;;;;22.50;49.30;;;;;;5053176;28;924;-36
2022/01/13 11:29:25;;;;;;;;;;;22.50;49.40;;;;;;5053367;28;1906;-36
2022/01/13 11:31:52;;;;;;;;;;;22.50;49.20;;;;;;5053503;28;932;-37
2022/01/13 11:34:19;;;;;;;;;;;22.50;49.30;;;;;;5052851;28;943;-36
2022/01/13 11:36:47;;;;;;;;;;;22.50;49.20;;;;;;5053215;28;1034;-36
2022/01/13 11:39:15;;;;;;;;;;;22.60;49.40;;;;;;5052659;28;936;-36
2022/01/13 11:42:02;;;;;;;;;;;22.60;49.30;;;;;;5052203;28;974;-36
2022/01/13 11:44:29;;;;;;;;;;;22.50;49.10;;;;;;5052184;27;1042;-36
2022/01/13 11:46:56;;;;;;;;;;;22.50;49.40;;;;;;5053109;28;683;-36
2022/01/13 11:49:36;;;;;;;;;;;22.50;49.40;;;;;;5051994;28;2000;-36
2022/01/13 11:52:12;;;;;;;;;;;22.50;49.50;;;;;;5052655;27;924;-36
2022/01/13 11:54:41;;;;;;;;;;;22.60;49.30;;;;;;5052165;27;902;-36
2022/01/13 11:57:16;;;;;;;;;;;22.50;49.30;;;;;;5050784;28;995;-36
2022/01/13 12:00:07;;;;;;;;;;;22.60;49.30;;;;;;5052400;28;1026;-36
2022/01/13 12:02:39;;;;;;;;;;;22.50;49.10;;;;;;5052970;28;975;-37
2022/01/13 12:05:07;;;;;;;;;;;22.50;49.20;;;;;;5052315;28;917;-37
2022/01/13 12:07:34;;;;;;;;;;;22.50;49.20;;;;;;5051693;28;1975;-37
2022/01/13 12:10:02;;;;;;;;;;;22.50;49.50;;;;;;5051576;28;998;-37
2022/01/13 12:12:30;;;;;;;;;;;22.50;49.20;;;;;;5052034;28;932;-37
2022/01/13 12:15:13;;;;;;;;;;;22.50;49.30;;;;;;5051316;28;979;-37
2022/01/13 12:17:44;;;;;;;;;;;22.50;49.30;;;;;;5052089;28;1022;-37
2022/01/13 12:20:21;;;;;;;;;;;22.50;49.20;;;;;;5052950;28;1013;-37
2022/01/13 12:22:57;;;;;;;;;;;22.50;49.30;;;;;;5052083;28;968;-37
2022/01/13 12:25:31;;;;;;;;;;;22.50;49.50;;;;;;5052566;27;1010;-37
2022/01/13 12:27:58;;;;;;;;;;;22.50;49.20;;;;;;5051258;28;1993;-37
2022/01/13 12:30:27;;;;;;;;;;;22.50;49.00;;;;;;5052383;28;988;-36
2022/01/13 12:32:54;;;;;;;;;;;22.50;49.30;;;;;;5052314;28;956;-36
2022/01/13 12:35:40;;;;;;;;;;;22.50;49.40;;;;;;5053098;28;944;-36
2022/01/13 12:38:08;;;;;;;;;;;22.50;49.20;;;;;;5051376;27;1871;-36
2022/01/13 12:40:41;;;;;;;;;;;22.50;49.60;;;;;;5051437;28;953;-36
2022/01/13 12:43:21;;;;;;;;;;;22.50;50.30;;;;;;5051626;27;948;-36
2022/01/13 12:45:48;;;;;;;;;;;22.50;50.10;;;;;;5052252;27;1148;-36
2022/01/13 12:48:15;;;;;;;;;;;22.50;49.80;;;;;;5051222;28;1906;-36
2022/01/13 12:50:42;;;;;;;;;;;22.50;49.60;;;;;;5049340;28;1059;-36
2022/01/13 12:53:14;;;;;;;;;;;22.50;49.60;;;;;;5054095;28;994;-36
2022/01/13 12:55:43;;;;;;;;;;;22.50;49.90;;;;;;5054493;28;994;-36
2022/01/13 12:58:10;;;;;;;;;;;22.50;50.10;;;;;;5054033;28;943;-37
2022/01/13 13:00:37;;;;;;;;;;;22.50;49.10;;;;;;5054825;27;932;-37
2022/01/13 13:03:08;;;;;;;;;;;22.40;48.10;;;;;;5054741;28;964;-36
2022/01/13 13:05:36;;;;;;;;;;;22.40;48.30;;;;;;5054340;28;1043;-36
2022/01/13 13:08:03;;;;;;;;;;;22.40;48.30;;;;;;5055319;28;1897;-36
2022/01/13 13:10:30;;;;;;;;;;;22.40;48.10;;;;;;5055224;27;980;-37
2022/01/13 13:12:59;;;;;;;;;;;22.40;48.30;;;;;;5054425;28;991;-36
2022/01/13 13:15:41;;;;;;;;;;;22.50;49.10;;;;;;5055031;28;1023;-36
2022/01/13 13:18:09;;;;;;;;;;;22.40;49.20;;;;;;5053852;28;888;-36
2022/01/13 13:20:37;;;;;;;;;;;22.40;49.30;;;;;;5055177;28;1824;-36
2022/01/13 13:23:06;;;;;;;;;;;22.40;49.30;;;;;;5054932;28;1089;-37
2022/01/13 13:25:34;;;;;;;;;;;22.40;49.50;;;;;;5055282;27;992;-36
2022/01/13 13:28:16;;;;;;;;;;;22.40;49.40;;;;;;5055326;28;1913;-36
2022/01/13 13:30:45;;;;;;;;;;;22.40;49.50;;;;;;5055741;28;972;-36
2022/01/13 13:33:11;;;;;;;;;;;22.40;49.40;;;;;;5055885;28;1031;-36
2022/01/13 13:35:38;;;;;;;;;;;22.40;49.50;;;;;;5055061;28;1006;-36
2022/01/13 13:38:10;;;;;;;;;;;22.40;49.40;;;;;;5055020;28;1769;-36
2022/01/13 13:40:42;;;;;;;;;;;22.40;49.40;;;;;;5055254;28;986;-36
2022/01/13 13:43:08;;;;;;;;;;;22.40;49.50;;;;;;5055431;27;936;-36
2022/01/13 13:45:35;;;;;;;;;;;22.40;49.60;;;;;;5055095;28;1023;-36
2022/01/13 13:48:04;;;;;;;;;;;22.40;49.70;;;;;;5054313;28;1988;-36
2022/01/13 13:50:31;;;;;;;;;;;22.40;49.70;;;;;;5052812;28;988;-36
2022/01/13 13:53:06;;;;;;;;;;;22.40;49.70;;;;;;5053890;28;1325;-37
2022/01/13 13:55:33;;;;;;;;;;;22.40;49.90;;;;;;5054028;28;904;-35
2022/01/13 13:57:59;;;;;;;;;;;22.50;49.80;;;;;;5053761;28;896;-35
2022/01/13 14:00:27;;;;;;;;;;;22.60;50.00;;;;;;5055093;28;936;-35
2022/01/13 14:02:55;;;;;;;;;;;22.60;49.90;;;;;;5055038;27;900;-35
2022/01/13 14:05:26;;;;;;;;;;;22.60;50.00;;;;;;5054463;27;993;-35
2022/01/13 14:08:04;;;;;;;;;;;22.70;50.10;;;;;;5055228;27;1906;-35
2022/01/13 14:10:32;;;;;;;;;;;22.80;50.30;;;;;;5054137;28;1005;-36
2022/01/13 14:13:01;;;;;;;;;;;22.90;50.60;;;;;;5055037;27;919;-36
2022/01/13 14:15:30;;;;;;;;;;;22.90;50.70;;;;;;5055200;27;1489;-36
2022/01/13 14:17:58;;;;;;;;;;;23.00;50.80;;;;;;5054321;28;1007;-36
2022/01/13 14:20:28;;;;;;;;;;;23.10;50.80;;;;;;5054893;28;972;-35
2022/01/13 14:22:56;;;;;;;;;;;23.10;50.90;;;;;;5054533;28;1023;-35
2022/01/13 14:25:23;;;;;;;;;;;23.20;50.90;;;;;;5054468;28;1019;-35
2022/01/13 14:27:50;;;;;;;;;;;23.30;50.90;;;;;;5054246;27;917;-34
2022/01/13 14:30:24;;;;;;;;;;;23.30;50.90;;;;;;5054096;27;2016;-34
2022/01/13 14:32:51;;;;;;;;;;;23.30;50.70;;;;;;5053566;28;948;-34
2022/01/13 14:35:27;;;;;;;;;;;23.30;50.60;;;;;;5053696;28;1014;-34
2022/01/13 14:37:56;;;;;;;;;;;23.30;50.70;;;;;;5053758;28;1016;-35
2022/01/13 14:40:23;;;;;;;;;;;23.30;50.70;;;;;;5052944;28;1032;-35
2022/01/13 14:42:50;;;;;;;;;;;23.40;50.70;;;;;;5053553;27;998;-34
2022/01/13 14:45:23;;;;;;;;;;;23.40;50.70;;;;;;5053879;28;1054;-35
2022/01/13 14:47:50;;;;;;;;;;;23.40;50.60;;;;;;5052987;27;976;-33
2022/01/13 14:50:17;;;;;;;;;;;23.40;50.50;;;;;;5052239;28;1906;-33
2022/01/13 14:52:46;;;;;;;;;;;23.50;50.50;;;;;;5061043;28;1846;-34
2022/01/13 14:55:14;;;;;;;;;;;23.40;50.50;;;;;;5073169;28;880;-35
2022/01/13 14:57:41;;;;;;;;;;;23.50;50.60;;;;;;5072900;28;940;-36
2022/01/13 15:00:09;;;;;;;;;;;23.50;50.60;;;;;;5073703;28;980;-36
2022/01/13 15:02:36;;;;;;;;;;;23.50;50.70;;;;;;5073953;28;976;-37
2022/01/13 15:05:03;;;;;;;;;;;23.60;50.80;;;;;;5072887;28;1003;-36
2022/01/13 15:07:29;;;;;;;;;;;23.60;50.70;;;;;;5073608;28;991;-36